Time;durP1;ratioP1;P1;durP2;ratioP2;P2;SDS_P1;SDS_P2;PMS_P1;PMS_P2;Temp;Humidity;BMP_temperature;BMP_pressure;BME280_temperature;BME280_humidity;BME280_pressure;Samples;Min_cycle;Max_cycle;Signal;HPM_P1;HPM_P2
2022/04/03 00:01:25;;;;;;;3.13;2.60;;;16.70;45.00;;;;;;4955581;28;92922;-72
2022/04/03 00:03:51;;;;;;;3.50;2.42;;;16.70;45.00;;;;;;4954616;28;94097;-72
2022/04/03 00:06:17;;;;;;;2.78;2.40;;;16.70;44.90;;;;;;4953780;28;92713;-72
2022/04/03 00:08:42;;;;;;;3.22;2.55;;;16.70;45.00;;;;;;4954718;28;92866;-72
2022/04/03 00:11:10;;;;;;;3.22;2.40;;;16.70;45.00;;;;;;4952737;28;96734;-73
2022/04/03 00:13:38;;;;;;;2.63;2.35;;;16.70;44.90;;;;;;4954311;28;95201;-73
2022/04/03 00:16:05;;;;;;;2.92;2.40;;;16.60;44.80;;;;;;4954228;28;93142;-72
2022/04/03 00:18:31;;;;;;;3.00;2.30;;;16.60;44.90;;;;;;4955760;28;92913;-72
2022/04/03 00:20:57;;;;;;;3.28;2.20;;;16.60;44.90;;;;;;4957190;28;94129;-72
2022/04/03 00:23:23;;;;;;;3.03;2.10;;;16.60;44.80;;;;;;4955527;28;92628;-72
2022/04/03 00:25:50;;;;;;;3.50;2.47;;;16.60;44.90;;;;;;4956286;28;92839;-73
2022/04/03 00:28:16;;;;;;;2.85;2.40;;;16.60;44.90;;;;;;4955408;28;91750;-72
2022/04/03 00:30:42;;;;;;;3.40;2.30;;;16.60;44.80;;;;;;4954630;28;93190;-72
2022/04/03 00:33:11;;;;;;;3.13;1.95;;;16.60;44.80;;;;;;4954211;28;93754;-72
2022/04/03 00:35:38;;;;;;;2.55;2.22;;;16.60;44.90;;;;;;4953283;28;95384;-72
2022/04/03 00:38:04;;;;;;;2.95;2.20;;;16.60;44.80;;;;;;4954954;28;92550;-72
2022/04/03 00:40:29;;;;;;;2.35;2.15;;;16.60;44.80;;;;;;4935457;28;93915;-71
2022/04/03 00:42:57;;;;;;;4.40;2.50;;;16.50;44.80;;;;;;4953033;28;92780;-72
2022/04/03 00:45:22;;;;;;;3.30;2.30;;;16.50;44.70;;;;;;4953656;28;92598;-72
2022/04/03 00:47:53;;;;;;;3.05;2.28;;;16.50;44.80;;;;;;4954519;28;92586;-72
2022/04/03 00:50:20;;;;;;;3.50;2.25;;;16.50;44.80;;;;;;4953828;28;94055;-73
2022/04/03 00:52:46;;;;;;;2.80;2.33;;;16.50;44.80;;;;;;4954127;28;93999;-72
2022/04/03 00:55:13;;;;;;;3.22;2.50;;;16.50;44.70;;;;;;4953060;28;92624;-73
2022/04/03 00:57:43;;;;;;;2.65;2.05;;;16.50;44.70;;;;;;4953605;28;92533;-72
2022/04/03 01:00:09;;;;;;;2.60;2.20;;;16.50;44.70;;;;;;4950488;28;95405;-73
2022/04/03 01:02:35;;;;;;;2.55;2.13;;;16.50;44.70;;;;;;4953334;28;96458;-73
2022/04/03 01:05:02;;;;;;;2.88;2.45;;;16.50;44.80;;;;;;4953516;28;92491;-72
2022/04/03 01:07:28;;;;;;;3.95;2.50;;;16.50;44.70;;;;;;4953911;28;92651;-73
2022/04/03 01:09:53;;;;;;;3.05;2.30;;;16.50;44.70;;;;;;4953322;28;93763;-72
2022/04/03 01:12:19;;;;;;;3.00;2.58;;;16.50;44.70;;;;;;4954019;28;92745;-72
2022/04/03 01:14:44;;;;;;;3.75;2.75;;;16.40;44.60;;;;;;4953734;28;92594;-72
2022/04/03 01:17:13;;;;;;;3.40;2.65;;;16.50;44.60;;;;;;4954390;28;92272;-72
2022/04/03 01:19:40;;;;;;;3.05;2.47;;;16.50;44.60;;;;;;4952885;28;93609;-72
2022/04/03 01:22:06;;;;;;;3.47;2.40;;;16.40;44.70;;;;;;4953731;28;93867;-72
2022/04/03 01:24:33;;;;;;;2.97;2.42;;;16.40;44.60;;;;;;4951316;28;95463;-72
2022/04/03 01:27:00;;;;;;;2.97;2.58;;;16.40;44.50;;;;;;4953764;28;92973;-73
2022/04/03 01:29:26;;;;;;;3.72;2.55;;;16.40;44.50;;;;;;4952626;28;92546;-72
2022/04/03 01:31:53;;;;;;;3.92;2.60;;;16.40;44.50;;;;;;4953210;28;93507;-73
2022/04/03 01:34:20;;;;;;;2.65;2.40;;;16.40;45.60;;;;;;4953780;28;93050;-71
2022/04/03 01:36:47;;;;;;;3.55;2.50;;;16.40;44.60;;;;;;4953739;28;92548;-72
2022/04/03 01:39:14;;;;;;;3.03;2.72;;;16.40;44.60;;;;;;4951222;28;93432;-72
2022/04/03 01:41:41;;;;;;;3.83;2.80;;;16.40;44.60;;;;;;4953796;28;92781;-72
2022/04/03 01:44:10;;;;;;;3.40;2.30;;;16.40;44.50;;;;;;4952304;28;92656;-73
2022/04/03 01:46:37;;;;;;;3.00;2.47;;;16.40;44.50;;;;;;4953825;28;92602;-72
2022/04/03 01:49:04;;;;;;;3.75;2.45;;;16.40;44.50;;;;;;4952610;28;95528;-72
2022/04/03 01:51:31;;;;;;;2.80;2.42;;;16.40;44.50;;;;;;4953009;28;96129;-73
2022/04/03 01:53:56;;;;;;;2.70;2.40;;;16.30;44.50;;;;;;4953076;28;92532;-72
2022/04/03 01:56:22;;;;;;;3.25;2.60;;;16.30;44.40;;;;;;4952049;28;92782;-72
2022/04/03 01:58:58;;;;;;;2.92;2.45;;;16.30;44.40;;;;;;4953195;28;93042;-73
2022/04/03 02:01:24;;;;;;;3.15;2.38;;;16.40;44.50;;;;;;4953584;28;103205;-72
2022/04/03 02:03:50;;;;;;;3.17;2.53;;;16.30;44.40;;;;;;4953511;28;92638;-73
2022/04/03 02:06:16;;;;;;;2.97;2.42;;;16.30;44.40;;;;;;4958019;28;92766;-72
2022/04/03 02:08:49;;;;;;;3.83;2.50;;;16.30;44.40;;;;;;4955215;28;93244;-72
2022/04/03 02:11:17;;;;;;;2.92;2.25;;;16.30;44.40;;;;;;4952892;28;92867;-72
2022/04/03 02:13:43;;;;;;;2.75;2.38;;;16.30;44.40;;;;;;4955124;28;95761;-72
2022/04/03 02:16:11;;;;;;;2.65;2.30;;;16.30;44.50;;;;;;4954985;28;92980;-72
2022/04/03 02:18:37;;;;;;;2.85;2.33;;;16.30;44.40;;;;;;4954886;28;94282;-72
2022/04/03 02:21:04;;;;;;;2.47;2.03;;;16.30;44.50;;;;;;4956515;28;94379;-72
2022/04/03 02:23:29;;;;;;;2.60;2.38;;;16.30;44.50;;;;;;4955155;28;92877;-72
2022/04/03 02:25:55;;;;;;;2.67;2.40;;;16.30;44.40;;;;;;4956390;28;92708;-72
2022/04/03 02:28:20;;;;;;;3.05;2.30;;;16.20;44.40;;;;;;4954510;28;94144;-73
2022/04/03 02:30:47;;;;;;;2.53;2.28;;;16.20;44.40;;;;;;4957320;28;93274;-72
2022/04/03 02:33:12;;;;;;;2.50;2.30;;;16.30;44.50;;;;;;4956068;28;92914;-72
2022/04/03 02:35:40;;;;;;;2.90;2.33;;;16.30;44.40;;;;;;4956282;28;93684;-72
2022/04/03 02:38:06;;;;;;;3.08;2.30;;;16.20;45.40;;;;;;4953944;28;98327;-72
2022/04/03 02:40:31;;;;;;;2.50;2.30;;;16.20;44.50;;;;;;4953767;28;95352;-73
2022/04/03 02:42:59;;;;;;;2.53;2.25;;;16.20;44.40;;;;;;4955708;28;93001;-72
2022/04/03 02:45:25;;;;;;;3.08;2.20;;;16.20;44.40;;;;;;4955528;28;93031;-72
2022/04/03 02:47:55;;;;;;;2.30;2.10;;;16.20;44.40;;;;;;4956151;28;93060;-72
2022/04/03 02:50:27;;;;;;;2.60;2.40;;;16.20;44.30;;;;;;4955861;28;93791;-73
2022/04/03 02:52:54;;;;;;;2.35;2.15;;;16.20;44.30;;;;;;4955789;28;92707;-72
2022/04/03 02:55:22;;;;;;;2.38;1.88;;;16.20;44.30;;;;;;4956646;28;92216;-73
2022/04/03 02:57:49;;;;;;;2.08;1.88;;;16.20;44.30;;;;;;4955541;28;92592;-72
2022/04/03 03:00:17;;;;;;;2.38;2.00;;;16.20;44.30;;;;;;4954562;28;92777;-72
2022/04/03 03:02:45;;;;;;;2.58;2.22;;;16.20;44.30;;;;;;4954150;28;95224;-72
2022/04/03 03:05:13;;;;;;;2.42;2.03;;;16.20;44.30;;;;;;4954555;28;92528;-73
2022/04/03 03:07:41;;;;;;;2.67;1.98;;;16.20;44.30;;;;;;4956236;28;93921;-72
2022/04/03 03:10:08;;;;;;;2.33;2.05;;;16.20;44.40;;;;;;4955090;28;94408;-72
2022/04/03 03:12:34;;;;;;;2.88;2.05;;;16.20;44.30;;;;;;4955214;28;92639;-72
2022/04/03 03:15:00;;;;;;;2.33;2.00;;;16.20;44.30;;;;;;4955664;28;92475;-72
2022/04/03 04:18:42;;;;;;;1.75;1.40;;;16.00;44.30;;;;;;5279203;22;100771;-73
2022/04/03 04:21:11;;;;;;;2.72;1.70;;;16.00;44.40;;;;;;4942323;28;92546;-72
2022/04/03 04:23:37;;;;;;;2.15;1.75;;;16.00;44.30;;;;;;4938093;28;93204;-72
2022/04/03 04:26:03;;;;;;;2.00;1.75;;;16.00;44.30;;;;;;4934331;28;96510;-72
2022/04/03 04:28:29;;;;;;;2.40;1.50;;;16.00;44.30;;;;;;4933153;28;96658;-73
2022/04/03 04:30:56;;;;;;;2.05;1.58;;;16.00;44.20;;;;;;4934805;28;92569;-72
2022/04/03 04:33:22;;;;;;;2.00;1.77;;;16.00;44.20;;;;;;4934061;28;93054;-73
2022/04/03 04:35:47;;;;;;;1.67;1.50;;;16.00;44.20;;;;;;4934634;28;94704;-73
2022/04/03 04:38:13;;;;;;;2.00;1.50;;;16.00;44.20;;;;;;4933704;28;100347;-72
2022/04/03 04:40:39;;;;;;;1.55;1.45;;;16.00;44.80;;;;;;4935120;28;93077;-72
2022/04/03 04:43:05;;;;;;;1.48;1.20;;;16.00;44.20;;;;;;4935563;28;92227;-72
2022/04/03 04:45:30;;;;;;;3.28;1.70;;;15.90;44.20;;;;;;4934812;28;94081;-71
2022/04/03 04:47:59;;;;;;;2.92;1.90;;;16.00;44.20;;;;;;4934995;28;93732;-71
2022/04/03 04:50:31;;;;;;;2.40;1.45;;;15.90;44.20;;;;;;4932487;28;94954;-72
2022/04/03 04:52:57;;;;;;;2.13;1.30;;;15.90;44.20;;;;;;4934638;28;92899;-72
2022/04/03 04:55:24;;;;;;;2.45;1.70;;;15.90;44.20;;;;;;4934202;28;95292;-72
2022/04/03 04:57:52;;;;;;;2.30;1.20;;;15.90;44.20;;;;;;4934377;28;93816;-72
2022/04/03 05:00:20;;;;;;;3.88;1.60;;;15.90;44.10;;;;;;4935105;28;92968;-72
2022/04/03 05:02:46;;;;;;;2.40;1.40;;;15.90;44.20;;;;;;4934154;28;93007;-72
2022/04/03 05:05:17;;;;;;;2.03;1.40;;;15.90;44.20;;;;;;4934443;28;94413;-70
2022/04/03 05:07:44;;;;;;;1.65;1.30;;;15.90;44.10;;;;;;4934222;28;94917;-72
2022/04/03 05:10:12;;;;;;;1.48;1.30;;;15.90;44.10;;;;;;4933532;28;92727;-72
2022/04/03 05:12:38;;;;;;;1.85;1.40;;;15.90;44.10;;;;;;4934199;28;92503;-72
2022/04/03 05:15:06;;;;;;;2.67;1.60;;;15.90;44.20;;;;;;4932356;28;95899;-72
2022/04/03 05:17:42;;;;;;;2.90;1.60;;;15.90;44.10;;;;;;4935581;28;95985;-72
2022/04/03 05:20:10;;;;;;;1.73;1.30;;;15.90;44.10;;;;;;4952407;28;93141;-71
2022/04/03 05:22:36;;;;;;;1.38;1.23;;;15.90;44.20;;;;;;4934547;28;92642;-72
2022/04/03 05:25:04;;;;;;;2.92;1.42;;;15.90;44.20;;;;;;4952804;28;92980;-72
2022/04/03 05:27:33;;;;;;;2.00;1.38;;;15.80;44.10;;;;;;4952512;28;92826;-72
2022/04/03 05:30:01;;;;;;;1.92;1.30;;;15.90;44.20;;;;;;4954623;28;92902;-73
2022/04/03 05:32:28;;;;;;;1.25;1.15;;;15.80;44.10;;;;;;4953987;28;91846;-72
2022/04/03 05:34:57;;;;;;;1.75;1.20;;;15.80;44.20;;;;;;4952347;28;92947;-73
2022/04/03 05:37:24;;;;;;;1.35;1.25;;;15.80;44.10;;;;;;4953073;28;92746;-72
2022/04/03 05:39:51;;;;;;;1.67;1.20;;;15.80;44.10;;;;;;4951799;28;95286;-71
2022/04/03 05:42:17;;;;;;;1.92;1.33;;;15.80;44.10;;;;;;4952753;28;92574;-72
2022/04/03 05:44:43;;;;;;;4.18;1.35;;;15.80;44.10;;;;;;4952542;28;94193;-71
2022/04/03 05:47:08;;;;;;;1.48;1.20;;;15.80;44.10;;;;;;4951278;28;94124;-71
2022/04/03 05:49:34;;;;;;;1.40;1.30;;;15.80;44.10;;;;;;4952863;28;92528;-72
2022/04/03 05:51:59;;;;;;;3.13;1.40;;;15.80;44.20;;;;;;4952066;28;93122;-72
2022/04/03 05:54:27;;;;;;;2.13;1.20;;;15.80;44.10;;;;;;4952068;28;93585;-72
2022/04/03 05:56:53;;;;;;;2.20;1.20;;;15.80;44.10;;;;;;4953750;28;92763;-72
2022/04/03 05:59:19;;;;;;;3.13;1.70;;;15.80;44.10;;;;;;4953714;28;92552;-72
2022/04/03 06:01:48;;;;;;;2.30;1.50;;;15.80;44.20;;;;;;4954712;28;92624;-72
2022/04/03 06:04:15;;;;;;;2.75;1.58;;;15.80;44.20;;;;;;4954395;28;97422;-71
2022/04/03 06:06:41;;;;;;;2.47;1.20;;;15.80;44.20;;;;;;4954681;28;95940;-72
2022/04/03 06:09:07;;;;;;;1.45;1.27;;;15.90;44.20;;;;;;4954936;28;92538;-72
2022/04/03 06:11:32;;;;;;;1.40;1.20;;;16.00;44.20;;;;;;4953352;28;92550;-72
2022/04/03 06:13:58;;;;;;;1.73;1.23;;;16.10;44.10;;;;;;4952409;28;93135;-72
2022/04/03 06:16:24;;;;;;;2.20;1.23;;;16.30;44.00;;;;;;4945215;28;93676;-71
2022/04/03 06:18:52;;;;;;;1.48;1.10;;;16.40;43.80;;;;;;4950985;28;92596;-72
2022/04/03 06:21:18;;;;;;;2.22;1.20;;;16.50;43.60;;;;;;4954097;28;91749;-72
2022/04/03 06:23:44;;;;;;;2.65;1.20;;;16.60;43.30;;;;;;4952181;28;93125;-72
2022/04/03 06:26:10;;;;;;;2.38;1.10;;;16.80;43.20;;;;;;4953126;28;103536;-71
2022/04/03 06:28:36;;;;;;;2.40;1.20;;;16.90;43.10;;;;;;4951193;28;97017;-72
2022/04/03 06:36:12;;;;;;;3.78;1.23;;;17.30;42.60;;;;;;4799460;22;96065;-72
2022/04/03 06:38:37;;;;;;;3.90;1.30;;;17.40;42.60;;;;;;4933418;28;93155;-72
2022/04/03 06:41:03;;;;;;;4.68;1.10;;;17.50;42.40;;;;;;4932920;28;93114;-74
2022/04/03 06:43:30;;;;;;;3.90;1.10;;;17.50;42.40;;;;;;4932120;28;96428;-73
2022/04/03 06:45:57;;;;;;;1.77;1.00;;;17.60;42.60;;;;;;4932027;28;93749;-72
2022/04/03 06:48:23;;;;;;;3.28;1.00;;;17.60;42.60;;;;;;4931870;28;92450;-72
2022/04/03 06:50:49;;;;;;;1.85;1.00;;;17.70;42.80;;;;;;4932153;28;92693;-73
2022/04/03 06:53:15;;;;;;;2.40;1.00;;;17.80;42.80;;;;;;4930781;28;96412;-73
2022/04/03 06:55:41;;;;;;;3.22;1.20;;;17.90;43.00;;;;;;4932123;28;95120;-73
2022/04/03 06:58:07;;;;;;;3.65;0.85;;;17.90;43.00;;;;;;4931876;28;92837;-72
2022/04/03 07:00:34;;;;;;;2.10;1.15;;;17.90;43.10;;;;;;4936187;28;92919;-74
2022/04/03 07:03:00;;;;;;;1.45;0.90;;;18.00;43.20;;;;;;4935058;28;93609;-72
2022/04/03 07:05:25;;;;;;;1.92;0.90;;;18.00;43.40;;;;;;4935262;28;101667;-72
2022/04/03 07:07:52;;;;;;;0.98;0.70;;;18.10;43.50;;;;;;4935209;28;92558;-73
2022/04/03 07:10:18;;;;;;;1.10;0.70;;;18.10;43.50;;;;;;4935534;28;93417;-73
2022/04/03 07:12:44;;;;;;;1.30;1.00;;;18.20;43.50;;;;;;4935425;28;93191;-73
2022/04/03 07:15:12;;;;;;;1.85;0.93;;;18.20;43.70;;;;;;4934904;28;96044;-72
2022/04/03 07:17:42;;;;;;;1.85;0.90;;;18.20;43.80;;;;;;4934007;28;94900;-72
2022/04/03 07:20:08;;;;;;;1.67;0.70;;;18.20;43.80;;;;;;4934697;28;92459;-73
2022/04/03 07:22:34;;;;;;;2.90;0.80;;;18.30;43.80;;;;;;4935526;28;95157;-74
2022/04/03 07:25:00;;;;;;;1.83;0.93;;;18.30;43.80;;;;;;4934653;28;92620;-72
2022/04/03 07:27:27;;;;;;;2.13;0.90;;;18.30;43.80;;;;;;4935704;28;92978;-73
2022/04/03 07:29:52;;;;;;;1.63;0.80;;;18.30;43.80;;;;;;4935103;28;93045;-73
2022/04/03 07:32:18;;;;;;;2.15;0.82;;;18.30;43.80;;;;;;4934895;28;94109;-73
2022/04/03 07:34:44;;;;;;;1.70;0.75;;;18.30;43.80;;;;;;4943761;28;93349;-75
2022/04/03 07:37:10;;;;;;;3.03;0.80;;;18.30;43.70;;;;;;4953784;28;98651;-74
2022/04/03 07:39:35;;;;;;;3.35;1.00;;;18.40;43.70;;;;;;4954121;28;92805;-74
2022/04/03 07:42:03;;;;;;;1.65;0.90;;;18.40;43.80;;;;;;4952326;28;97361;-72
2022/04/03 07:44:29;;;;;;;2.95;0.93;;;18.40;43.70;;;;;;4954778;28;97991;-73
2022/04/03 07:46:55;;;;;;;2.40;0.80;;;18.40;43.80;;;;;;4954445;28;92575;-74
2022/04/03 07:49:21;;;;;;;1.88;0.82;;;18.40;43.70;;;;;;4954117;28;92541;-73
2022/04/03 07:51:47;;;;;;;2.78;0.90;;;18.40;43.70;;;;;;4952174;28;94695;-74
2022/04/03 07:54:14;;;;;;;2.05;0.80;;;18.40;43.60;;;;;;4954978;28;92988;-74
2022/04/03 07:56:39;;;;;;;1.38;1.00;;;18.50;43.70;;;;;;4953284;28;92894;-73
2022/04/03 07:59:06;;;;;;;3.00;1.10;;;18.50;43.60;;;;;;4954196;28;92131;-73
2022/04/03 08:01:33;;;;;;;2.17;0.73;;;18.40;43.50;;;;;;4936322;28;94805;-74
2022/04/03 08:03:59;;;;;;;2.38;0.73;;;18.50;43.50;;;;;;4953592;28;93852;-74
2022/04/03 08:06:24;;;;;;;1.02;0.57;;;18.50;43.40;;;;;;4952507;28;95290;-74
2022/04/03 08:08:50;;;;;;;1.90;0.80;;;18.50;43.40;;;;;;4953414;28;92717;-73
2022/04/03 08:11:16;;;;;;;1.42;0.80;;;18.50;43.50;;;;;;4953008;28;94522;-74
2022/04/03 08:13:42;;;;;;;1.20;0.70;;;18.50;43.40;;;;;;4952881;28;93153;-74
2022/04/03 08:16:08;;;;;;;1.95;0.70;;;18.50;43.40;;;;;;4954944;28;92924;-74
2022/04/03 08:18:36;;;;;;;2.10;0.70;;;18.60;43.40;;;;;;4955613;28;92852;-73
2022/04/03 08:21:02;;;;;;;1.38;0.70;;;18.60;43.30;;;;;;4954984;28;94127;-74
2022/04/03 08:23:27;;;;;;;0.57;0.50;;;18.60;43.30;;;;;;4958190;28;92740;-74
2022/04/03 08:25:53;;;;;;;1.80;0.80;;;18.60;43.30;;;;;;4956648;28;92477;-74
2022/04/03 08:28:19;;;;;;;2.63;0.65;;;18.60;43.40;;;;;;4954852;28;92553;-74
2022/04/03 08:30:45;;;;;;;1.70;0.60;;;18.60;43.20;;;;;;4952211;28;96433;-74
2022/04/03 08:33:11;;;;;;;0.65;0.52;;;18.70;43.20;;;;;;4952411;28;104212;-74
2022/04/03 08:35:40;;;;;;;1.25;0.60;;;18.70;44.20;;;;;;4952750;28;93056;-74
2022/04/03 08:38:07;;;;;;;1.02;0.68;;;18.70;43.20;;;;;;4952787;28;93475;-74
2022/04/03 08:40:34;;;;;;;1.25;0.57;;;18.60;43.20;;;;;;4953018;28;93574;-74
2022/04/03 08:43:01;;;;;;;1.55;0.63;;;18.60;44.20;;;;;;4952933;28;93040;-74
2022/04/03 08:45:28;;;;;;;1.35;0.70;;;18.60;43.20;;;;;;4952040;28;92525;-73
2022/04/03 08:47:59;;;;;;;2.05;0.60;;;18.60;43.30;;;;;;4954618;28;91832;-74
2022/04/03 08:50:29;;;;;;;0.85;0.60;;;18.60;43.40;;;;;;4952520;28;93804;-73
2022/04/03 08:52:58;;;;;;;1.33;0.50;;;18.60;43.40;;;;;;4953199;28;94087;-74
2022/04/03 08:55:24;;;;;;;0.60;0.40;;;18.60;43.40;;;;;;4952827;28;95392;-73
2022/04/03 08:57:50;;;;;;;1.30;0.63;;;18.60;43.40;;;;;;4953141;28;92602;-74
2022/04/03 09:00:16;;;;;;;2.05;0.75;;;18.60;43.30;;;;;;4951957;28;93121;-74
2022/04/03 09:02:45;;;;;;;2.00;0.77;;;18.60;43.40;;;;;;4952269;28;92988;-73
2022/04/03 09:05:10;;;;;;;1.00;0.60;;;18.70;43.40;;;;;;4952660;28;93070;-74
2022/04/03 09:07:36;;;;;;;1.45;0.80;;;18.70;43.50;;;;;;4952318;28;92612;-73
2022/04/03 09:10:10;;;;;;;1.08;0.57;;;18.70;43.30;;;;;;4952969;28;94138;-74
2022/04/03 09:12:44;;;;;;;1.02;0.60;;;18.70;43.30;;;;;;4952778;28;93760;-72
2022/04/03 09:15:15;;;;;;;1.20;0.70;;;18.70;43.20;;;;;;4952040;28;93034;-74
2022/04/03 09:17:44;;;;;;;1.20;0.60;;;18.80;43.30;;;;;;4950864;28;92630;-72
2022/04/03 09:20:12;;;;;;;1.50;0.50;;;18.80;43.20;;;;;;4951441;28;97262;-73
2022/04/03 09:22:41;;;;;;;1.40;0.60;;;18.80;43.30;;;;;;4950778;28;96452;-72
2022/04/03 09:25:12;;;;;;;0.98;0.60;;;18.80;43.30;;;;;;4952923;28;92936;-73
2022/04/03 09:27:56;;;;;;;0.70;0.43;;;18.80;43.40;;;;;;4953270;28;92461;-73
2022/04/03 09:30:28;;;;;;;0.98;0.60;;;18.70;43.30;;;;;;4952102;28;94394;-74
2022/04/03 09:32:55;;;;;;;2.30;0.67;;;18.70;43.40;;;;;;4952673;28;93058;-74
2022/04/03 09:35:24;;;;;;;1.85;0.50;;;18.70;43.50;;;;;;4951065;28;92909;-73
2022/04/03 09:38:12;;;;;;;0.73;0.60;;;18.60;43.60;;;;;;4952276;28;92237;-73
2022/04/03 09:40:41;;;;;;;0.60;0.50;;;18.60;43.60;;;;;;4951311;28;94149;-74
2022/04/03 09:43:20;;;;;;;0.90;0.60;;;18.60;43.80;;;;;;4952332;28;94020;-73
2022/04/03 09:46:06;;;;;;;0.77;0.40;;;18.50;43.80;;;;;;4951284;28;95104;-73
2022/04/03 09:48:36;;;;;;;1.60;0.50;;;18.50;44.00;;;;;;4951819;28;92976;-73
2022/04/03 09:51:11;;;;;;;1.80;0.60;;;18.40;43.90;;;;;;4951117;28;94305;-72
2022/04/03 09:53:47;;;;;;;0.93;0.50;;;18.40;44.00;;;;;;4951552;28;95944;-72
2022/04/03 09:56:25;;;;;;;0.98;0.50;;;18.30;44.10;;;;;;4952252;28;92600;-73
2022/04/03 09:58:51;;;;;;;1.10;0.60;;;18.20;44.20;;;;;;4950996;28;93047;-72
2022/04/03 10:01:34;;;;;;;1.10;0.50;;;18.20;44.30;;;;;;4952912;28;92958;-72
2022/04/03 10:04:04;;;;;;;0.85;0.50;;;18.20;44.40;;;;;;4952472;28;94450;-74
2022/04/03 10:06:31;;;;;;;1.17;0.50;;;18.10;44.50;;;;;;4952181;28;92643;-73
2022/04/03 10:09:00;;;;;;;1.33;0.50;;;18.10;44.60;;;;;;4954088;28;92609;-71
2022/04/03 10:11:27;;;;;;;0.93;0.40;;;18.00;44.60;;;;;;4954252;28;95474;-73
2022/04/03 10:13:56;;;;;;;0.80;0.50;;;18.00;44.70;;;;;;4954024;28;95321;-73
2022/04/03 10:16:23;;;;;;;1.42;0.50;;;17.90;44.70;;;;;;4952703;28;92958;-73
2022/04/03 10:18:50;;;;;;;1.02;0.40;;;18.00;44.90;;;;;;4952578;28;92619;-73
2022/04/03 10:21:24;;;;;;;1.13;0.40;;;17.90;44.80;;;;;;4951778;28;93051;-72
2022/04/03 10:23:52;;;;;;;1.60;0.50;;;17.90;44.80;;;;;;4951977;28;93217;-73
2022/04/03 10:26:21;;;;;;;0.98;0.52;;;17.90;44.80;;;;;;4951562;28;92586;-72
2022/04/03 10:28:52;;;;;;;0.73;0.40;;;17.90;44.90;;;;;;4952381;28;91838;-73
2022/04/03 10:31:17;;;;;;;0.85;0.63;;;17.90;45.00;;;;;;4950867;28;92986;-73
2022/04/03 10:33:48;;;;;;;0.70;0.40;;;17.80;45.00;;;;;;4954209;28;92655;-73
2022/04/03 10:36:17;;;;;;;1.30;0.50;;;17.90;45.10;;;;;;4952587;28;95725;-73
2022/04/03 10:39:15;;;;;;;1.13;0.50;;;17.90;45.20;;;;;;4955034;28;92749;-73
2022/04/03 10:41:43;;;;;;;1.63;0.52;;;18.00;45.40;;;;;;4952811;28;93132;-72
2022/04/03 10:44:19;;;;;;;2.13;0.60;;;18.10;45.40;;;;;;4937452;28;93576;-72
2022/04/03 10:47:03;;;;;;;1.95;0.50;;;18.30;45.50;;;;;;4955953;28;92858;-72
2022/04/03 10:49:41;;;;;;;1.92;0.80;;;18.40;45.70;;;;;;4954899;28;92452;-72
2022/04/03 10:52:38;;;;;;;0.82;0.45;;;18.50;45.80;;;;;;4955039;28;93388;-73
2022/04/03 10:55:34;;;;;;;0.47;0.32;;;18.50;45.80;;;;;;4922579;28;95381;-74
2022/04/03 10:58:04;;;;;;;1.27;0.50;;;18.60;45.80;;;;;;4955104;28;92793;-73
2022/04/03 11:00:30;;;;;;;1.67;0.50;;;18.70;45.90;;;;;;4955694;28;92846;-74
2022/04/03 11:02:56;;;;;;;0.88;0.55;;;18.80;45.90;;;;;;4953026;28;96572;-72
2022/04/03 11:05:22;;;;;;;1.35;0.40;;;18.80;45.70;;;;;;4954660;28;95156;-74
2022/04/03 11:07:58;;;;;;;1.83;0.50;;;18.90;45.50;;;;;;4954783;28;93211;-73
2022/04/03 11:10:53;;;;;;;3.10;0.70;;;18.90;45.30;;;;;;4954832;28;93033;-72
2022/04/03 11:13:30;;;;;;;2.10;0.60;;;18.90;45.30;;;;;;4953076;28;94916;-72
2022/04/03 11:16:25;;;;;;;2.88;0.80;;;18.90;44.50;;;;;;4953646;28;93334;-72
2022/04/03 11:18:51;;;;;;;0.68;0.40;;;18.80;43.90;;;;;;4950945;28;93045;-73
2022/04/03 11:21:24;;;;;;;1.75;0.40;;;18.80;44.20;;;;;;4954603;28;91847;-75
2022/04/03 11:23:59;;;;;;;1.60;0.65;;;18.80;44.20;;;;;;4953346;28;93722;-70
2022/04/03 11:26:25;;;;;;;1.63;0.68;;;18.80;44.20;;;;;;4953186;28;94239;-71
2022/04/03 11:28:52;;;;;;;6.10;0.98;;;18.80;44.20;;;;;;4952275;28;95398;-73
2022/04/03 11:31:17;;;;;;;12.23;1.15;;;18.80;44.20;;;;;;4954312;28;92476;-72
2022/04/03 11:33:46;;;;;;;6.03;0.65;;;18.90;44.30;;;;;;4951799;28;93106;-73
2022/04/03 11:36:17;;;;;;;4.25;0.60;;;18.90;44.40;;;;;;4951802;28;92847;-72
2022/04/03 11:38:48;;;;;;;6.53;0.43;;;18.90;44.60;;;;;;4953002;28;93122;-73
2022/04/03 11:41:16;;;;;;;3.42;0.63;;;19.00;44.70;;;;;;4951499;28;92994;-73
2022/04/03 11:43:42;;;;;;;5.93;0.70;;;19.00;44.70;;;;;;4952267;28;93752;-74
2022/04/03 11:46:08;;;;;;;3.70;0.45;;;19.00;44.70;;;;;;4953120;28;92576;-74
2022/04/03 11:48:42;;;;;;;2.30;0.45;;;19.10;45.00;;;;;;4953944;28;93145;-71
2022/04/03 11:51:12;;;;;;;1.38;0.40;;;19.10;45.00;;;;;;4953347;28;92899;-74
2022/04/03 11:53:41;;;;;;;1.27;0.40;;;19.20;44.90;;;;;;4951914;28;96883;-73
2022/04/03 11:56:16;;;;;;;0.47;0.38;;;19.20;45.00;;;;;;4953569;28;95682;-71
2022/04/03 11:58:44;;;;;;;0.80;0.30;;;19.30;46.10;;;;;;4954438;28;92512;-72
2022/04/03 12:01:11;;;;;;;1.58;0.55;;;19.30;45.10;;;;;;4956823;28;92646;-74
2022/04/03 12:03:38;;;;;;;1.30;0.50;;;19.40;44.90;;;;;;4957585;28;92964;-72
2022/04/03 12:06:13;;;;;;;2.22;0.50;;;19.40;44.90;;;;;;4954574;28;93932;-73
2022/04/03 12:08:40;;;;;;;1.95;0.60;;;19.50;44.80;;;;;;4937032;28;93029;-74
2022/04/03 12:11:26;;;;;;;1.38;0.30;;;19.50;44.80;;;;;;4953382;28;91881;-72
2022/04/03 12:13:56;;;;;;;3.00;0.47;;;19.50;45.00;;;;;;4951889;28;94423;-72
2022/04/03 12:16:37;;;;;;;2.80;0.60;;;19.50;44.90;;;;;;4952876;28;93767;-72
2022/04/03 12:19:05;;;;;;;6.43;1.42;;;19.50;45.00;;;;;;4950505;28;94880;-72
2022/04/03 12:21:52;;;;;;;8.60;1.90;;;19.40;45.20;;;;;;4952552;28;92885;-71
2022/04/03 12:24:25;;;;;;;8.35;2.22;;;19.40;45.50;;;;;;4951270;28;93843;-71
2022/04/03 12:26:54;;;;;;;7.20;1.90;;;19.40;45.70;;;;;;4952053;28;93894;-72
2022/04/03 12:29:23;;;;;;;7.15;2.20;;;19.40;46.00;;;;;;4953361;28;92778;-72
2022/04/03 12:31:59;;;;;;;8.73;2.20;;;19.40;46.20;;;;;;4952748;28;93016;-71
2022/04/03 12:34:26;;;;;;;10.20;2.30;;;19.40;46.40;;;;;;4951996;28;94402;-73
2022/04/03 12:36:54;;;;;;;10.07;2.35;;;19.40;46.30;;;;;;4951283;28;93894;-73
2022/04/03 12:39:42;;;;;;;6.53;2.20;;;19.50;46.70;;;;;;4952198;28;92923;-71
2022/04/03 12:42:16;;;;;;;9.02;1.90;;;19.50;46.50;;;;;;4952837;28;92798;-71
2022/04/03 12:44:58;;;;;;;8.50;1.92;;;19.50;46.60;;;;;;4950786;28;95401;-71
2022/04/03 12:47:31;;;;;;;8.15;2.20;;;19.60;46.60;;;;;;4951594;28;96695;-71
2022/04/03 12:50:05;;;;;;;4.07;1.80;;;19.60;46.70;;;;;;4951692;28;92634;-72
2022/04/03 12:52:41;;;;;;;9.00;2.30;;;19.60;46.60;;;;;;4951823;28;92549;-72
2022/04/03 12:55:28;;;;;;;9.30;2.00;;;19.70;46.60;;;;;;4951078;28;94382;-71
2022/04/03 13:00:48;;;;;;;6.20;1.67;;;19.70;46.70;;;;;;4951700;28;93064;-74
2022/04/03 13:03:25;;;;;;;;;;;19.70;46.70;;;;;;4951923;28;92356;-72
2022/04/03 13:05:55;;;;;;;5.35;1.90;;;19.60;46.60;;;;;;4952458;28;94099;-73
2022/04/03 13:08:21;;;;;;;5.18;1.85;;;19.60;46.80;;;;;;4952055;28;93080;-73
2022/04/03 13:10:51;;;;;;;6.18;2.08;;;19.60;47.00;;;;;;4950624;28;95521;-72
2022/04/03 13:13:22;;;;;;;7.72;2.00;;;19.60;47.10;;;;;;4951670;28;92640;-75
2022/04/03 13:15:47;;;;;;;4.65;1.83;;;19.60;47.10;;;;;;4951547;28;94049;-73
2022/04/03 13:18:13;;;;;;;3.95;1.50;;;19.50;47.20;;;;;;4951832;28;92734;-72
2022/04/03 13:20:38;;;;;;;7.32;1.52;;;19.50;48.30;;;;;;4951941;28;98076;-72
2022/04/03 13:23:04;;;;;;;5.13;1.63;;;19.50;47.30;;;;;;4951646;28;98743;-73
2022/04/03 13:25:29;;;;;;;6.40;1.80;;;19.50;47.20;;;;;;4951725;28;93239;-73
2022/04/03 13:27:55;;;;;;;4.72;1.55;;;19.40;47.20;;;;;;4951091;28;92839;-73
2022/04/03 13:30:20;;;;;;;5.47;1.50;;;19.40;47.10;;;;;;4950086;28;102615;-71
2022/04/03 13:32:46;;;;;;;5.93;1.45;;;19.40;47.20;;;;;;4950769;28;93644;-73
2022/04/03 13:35:12;;;;;;;6.50;1.38;;;19.40;47.10;;;;;;4949069;28;96717;-72
2022/04/03 13:37:37;;;;;;;5.82;1.55;;;19.40;47.20;;;;;;4950851;28;95488;-73
2022/04/03 13:40:03;;;;;;;5.80;1.40;;;19.40;47.30;;;;;;4951166;28;100509;-73
2022/04/03 13:42:29;;;;;;;5.30;1.60;;;19.40;47.30;;;;;;4951134;28;92511;-73
2022/04/03 13:44:54;;;;;;;4.40;1.33;;;19.40;47.20;;;;;;4951487;28;93217;-72
2022/04/03 13:47:21;;;;;;;4.00;1.48;;;19.40;47.10;;;;;;4952101;28;99573;-72
2022/04/03 13:49:53;;;;;;;3.22;1.40;;;19.50;46.90;;;;;;4954995;28;92798;-72
2022/04/03 13:52:20;;;;;;;4.95;1.40;;;19.50;46.80;;;;;;4955927;28;91917;-72
2022/04/03 13:54:46;;;;;;;2.90;1.10;;;19.60;46.80;;;;;;4952881;28;93638;-72
2022/04/03 13:57:11;;;;;;;4.82;1.52;;;19.60;46.70;;;;;;4952143;28;94873;-72
2022/04/03 13:59:37;;;;;;;3.92;1.20;;;19.60;46.60;;;;;;4950322;28;94896;-72
2022/04/03 14:02:03;;;;;;;4.07;1.42;;;19.60;46.60;;;;;;4952175;28;96072;-71